sensor_id;sensor_type;location;lat;lon;timestamp;P1;durP1;ratioP1;P2;durP2;ratioP2
13566;SDS011;6855;48.112;11.298;2022-08-03T00:01:04;3.40;;;1.00;;
13566;SDS011;6855;48.112;11.298;2022-08-03T00:03:32;1.10;;;1.00;;
13566;SDS011;6855;48.112;11.298;2022-08-03T00:06:00;1.30;;;1.03;;
13566;SDS011;6855;48.112;11.298;2022-08-03T00:08:27;5.70;;;1.20;;
13566;SDS011;6855;48.112;11.298;2022-08-03T00:10:54;2.80;;;1.17;;
13566;SDS011;6855;48.112;11.298;2022-08-03T00:13:21;1.43;;;1.10;;
13566;SDS011;6855;48.112;11.298;2022-08-03T00:15:48;2.30;;;1.07;;
13566;SDS011;6855;48.112;11.298;2022-08-03T00:18:16;1.60;;;1.40;;
13566;SDS011;6855;48.112;11.298;2022-08-03T00:20:44;2.33;;;1.30;;
13566;SDS011;6855;48.112;11.298;2022-08-03T00:23:12;2.37;;;1.40;;
13566;SDS011;6855;48.112;11.298;2022-08-03T00:25:39;2.30;;;1.27;;
13566;SDS011;6855;48.112;11.298;2022-08-03T00:28:06;1.20;;;1.10;;
13566;SDS011;6855;48.112;11.298;2022-08-03T00:30:33;1.20;;;1.10;;
13566;SDS011;6855;48.112;11.298;2022-08-03T00:33:01;3.00;;;1.43;;
13566;SDS011;6855;48.112;11.298;2022-08-03T00:35:28;1.43;;;1.10;;
13566;SDS011;6855;48.112;11.298;2022-08-03T00:37:57;1.93;;;1.30;;
13566;SDS011;6855;48.112;11.298;2022-08-03T00:40:24;1.60;;;1.33;;
13566;SDS011;6855;48.112;11.298;2022-08-03T00:42:52;2.40;;;1.30;;
13566;SDS011;6855;48.112;11.298;2022-08-03T00:45:21;1.47;;;1.03;;
13566;SDS011;6855;48.112;11.298;2022-08-03T00:47:48;1.63;;;1.23;;
13566;SDS011;6855;48.112;11.298;2022-08-03T00:50:16;3.00;;;1.23;;
13566;SDS011;6855;48.112;11.298;2022-08-03T00:52:43;3.57;;;1.20;;
13566;SDS011;6855;48.112;11.298;2022-08-03T00:55:12;1.80;;;1.00;;
13566;SDS011;6855;48.112;11.298;2022-08-03T00:57:39;1.13;;;1.03;;
13566;SDS011;6855;48.112;11.298;2022-08-03T01:00:08;1.07;;;0.97;;
13566;SDS011;6855;48.112;11.298;2022-08-03T01:02:39;1.23;;;1.13;;
13566;SDS011;6855;48.112;11.298;2022-08-03T01:05:06;1.37;;;1.17;;
13566;SDS011;6855;48.112;11.298;2022-08-03T01:07:40;3.40;;;1.23;;
13566;SDS011;6855;48.112;11.298;2022-08-03T01:10:10;0.80;;;0.80;;
13566;SDS011;6855;48.112;11.298;2022-08-03T01:12:42;3.00;;;1.03;;
13566;SDS011;6855;48.112;11.298;2022-08-03T01:15:14;4.63;;;1.30;;
13566;SDS011;6855;48.112;11.298;2022-08-03T01:17:43;1.23;;;1.13;;
13566;SDS011;6855;48.112;11.298;2022-08-03T01:20:13;1.40;;;1.30;;
13566;SDS011;6855;48.112;11.298;2022-08-03T01:22:50;1.80;;;1.23;;
13566;SDS011;6855;48.112;11.298;2022-08-03T01:25:24;1.30;;;1.20;;
13566;SDS011;6855;48.112;11.298;2022-08-03T01:27:58;2.33;;;1.20;;
13566;SDS011;6855;48.112;11.298;2022-08-03T01:30:30;1.53;;;1.03;;
13566;SDS011;6855;48.112;11.298;2022-08-03T01:32:58;1.20;;;1.07;;
13566;SDS011;6855;48.112;11.298;2022-08-03T01:35:28;1.30;;;1.10;;
13566;SDS011;6855;48.112;11.298;2022-08-03T01:38:00;1.40;;;1.30;;
13566;SDS011;6855;48.112;11.298;2022-08-03T01:40:28;3.57;;;1.20;;
13566;SDS011;6855;48.112;11.298;2022-08-03T01:42:56;1.30;;;1.20;;
13566;SDS011;6855;48.112;11.298;2022-08-03T01:45:25;1.87;;;0.93;;
13566;SDS011;6855;48.112;11.298;2022-08-03T01:47:55;4.93;;;1.10;;
13566;SDS011;6855;48.112;11.298;2022-08-03T01:50:23;1.57;;;1.47;;
13566;SDS011;6855;48.112;11.298;2022-08-03T01:52:52;3.40;;;1.30;;
13566;SDS011;6855;48.112;11.298;2022-08-03T01:55:20;1.53;;;1.30;;
13566;SDS011;6855;48.112;11.298;2022-08-03T01:57:49;1.10;;;1.10;;
13566;SDS011;6855;48.112;11.298;2022-08-03T02:00:18;1.50;;;1.40;;
13566;SDS011;6855;48.112;11.298;2022-08-03T02:02:46;1.57;;;1.47;;
13566;SDS011;6855;48.112;11.298;2022-08-03T02:05:15;2.70;;;1.37;;
13566;SDS011;6855;48.112;11.298;2022-08-03T02:07:44;2.33;;;1.50;;
13566;SDS011;6855;48.112;11.298;2022-08-03T02:10:12;1.67;;;1.57;;
13566;SDS011;6855;48.112;11.298;2022-08-03T02:12:41;1.27;;;1.17;;
13566;SDS011;6855;48.112;11.298;2022-08-03T02:15:09;1.50;;;1.40;;
13566;SDS011;6855;48.112;11.298;2022-08-03T02:17:37;1.60;;;1.50;;
13566;SDS011;6855;48.112;11.298;2022-08-03T02:20:06;1.30;;;1.20;;
13566;SDS011;6855;48.112;11.298;2022-08-03T02:22:35;5.63;;;1.20;;
13566;SDS011;6855;48.112;11.298;2022-08-03T02:25:04;1.77;;;1.50;;
13566;SDS011;6855;48.112;11.298;2022-08-03T02:27:32;1.70;;;1.40;;
13566;SDS011;6855;48.112;11.298;2022-08-03T02:30:02;1.93;;;1.40;;
13566;SDS011;6855;48.112;11.298;2022-08-03T02:32:30;1.57;;;1.47;;
13566;SDS011;6855;48.112;11.298;2022-08-03T02:34:58;2.17;;;1.40;;
13566;SDS011;6855;48.112;11.298;2022-08-03T02:37:28;2.60;;;1.30;;
13566;SDS011;6855;48.112;11.298;2022-08-03T02:40:00;2.57;;;1.50;;
13566;SDS011;6855;48.112;11.298;2022-08-03T02:42:28;1.90;;;1.43;;
13566;SDS011;6855;48.112;11.298;2022-08-03T02:44:56;1.50;;;1.40;;
13566;SDS011;6855;48.112;11.298;2022-08-03T02:47:25;3.27;;;1.77;;
13566;SDS011;6855;48.112;11.298;2022-08-03T02:49:54;2.60;;;1.60;;
13566;SDS011;6855;48.112;11.298;2022-08-03T02:52:22;2.20;;;1.50;;
13566;SDS011;6855;48.112;11.298;2022-08-03T02:54:51;2.20;;;1.50;;
13566;SDS011;6855;48.112;11.298;2022-08-03T02:57:20;4.73;;;1.60;;
13566;SDS011;6855;48.112;11.298;2022-08-03T02:59:48;1.40;;;1.30;;
13566;SDS011;6855;48.112;11.298;2022-08-03T03:02:17;2.47;;;1.67;;
13566;SDS011;6855;48.112;11.298;2022-08-03T03:04:45;2.13;;;1.20;;
13566;SDS011;6855;48.112;11.298;2022-08-03T03:07:13;1.60;;;1.40;;
13566;SDS011;6855;48.112;11.298;2022-08-03T03:09:40;3.30;;;1.57;;
13566;SDS011;6855;48.112;11.298;2022-08-03T03:12:08;2.60;;;1.73;;
13566;SDS011;6855;48.112;11.298;2022-08-03T03:14:37;7.80;;;1.83;;
13566;SDS011;6855;48.112;11.298;2022-08-03T03:17:05;1.50;;;1.37;;
13566;SDS011;6855;48.112;11.298;2022-08-03T03:19:33;1.40;;;1.30;;
13566;SDS011;6855;48.112;11.298;2022-08-03T03:22:01;2.10;;;1.50;;
13566;SDS011;6855;48.112;11.298;2022-08-03T03:24:30;2.27;;;1.57;;
13566;SDS011;6855;48.112;11.298;2022-08-03T03:26:58;2.70;;;1.97;;
13566;SDS011;6855;48.112;11.298;2022-08-03T03:29:26;2.27;;;1.53;;
13566;SDS011;6855;48.112;11.298;2022-08-03T03:31:54;4.30;;;1.60;;
13566;SDS011;6855;48.112;11.298;2022-08-03T03:34:22;2.00;;;1.90;;
13566;SDS011;6855;48.112;11.298;2022-08-03T03:36:50;1.60;;;1.50;;
13566;SDS011;6855;48.112;11.298;2022-08-03T03:39:17;1.73;;;1.63;;
13566;SDS011;6855;48.112;11.298;2022-08-03T03:41:44;9.47;;;1.80;;
13566;SDS011;6855;48.112;11.298;2022-08-03T03:44:11;1.50;;;1.40;;
13566;SDS011;6855;48.112;11.298;2022-08-03T03:46:39;5.27;;;1.77;;
13566;SDS011;6855;48.112;11.298;2022-08-03T03:49:07;1.93;;;1.67;;
13566;SDS011;6855;48.112;11.298;2022-08-03T03:51:35;2.07;;;1.83;;
13566;SDS011;6855;48.112;11.298;2022-08-03T03:54:03;2.80;;;1.43;;
13566;SDS011;6855;48.112;11.298;2022-08-03T03:56:31;3.13;;;1.53;;
13566;SDS011;6855;48.112;11.298;2022-08-03T03:58:58;3.33;;;1.63;;
13566;SDS011;6855;48.112;11.298;2022-08-03T04:01:25;3.90;;;1.90;;
13566;SDS011;6855;48.112;11.298;2022-08-03T04:03:53;2.03;;;1.67;;
13566;SDS011;6855;48.112;11.298;2022-08-03T04:06:21;2.27;;;1.63;;
13566;SDS011;6855;48.112;11.298;2022-08-03T04:09:07;1.93;;;1.77;;
13566;SDS011;6855;48.112;11.298;2022-08-03T04:11:53;4.73;;;1.83;;
13566;SDS011;6855;48.112;11.298;2022-08-03T04:14:21;2.20;;;2.00;;
13566;SDS011;6855;48.112;11.298;2022-08-03T04:16:51;4.40;;;1.93;;
13566;SDS011;6855;48.112;11.298;2022-08-03T04:19:21;1.63;;;1.53;;
13566;SDS011;6855;48.112;11.298;2022-08-03T04:21:53;1.43;;;1.17;;
13566;SDS011;6855;48.112;11.298;2022-08-03T04:24:21;2.70;;;1.90;;
13566;SDS011;6855;48.112;11.298;2022-08-03T04:26:49;2.27;;;1.87;;
13566;SDS011;6855;48.112;11.298;2022-08-03T04:29:17;2.20;;;2.00;;
13566;SDS011;6855;48.112;11.298;2022-08-03T04:31:44;4.03;;;1.90;;
13566;SDS011;6855;48.112;11.298;2022-08-03T04:34:12;2.97;;;1.77;;
13566;SDS011;6855;48.112;11.298;2022-08-03T04:36:43;6.07;;;1.50;;
13566;SDS011;6855;48.112;11.298;2022-08-03T04:39:13;2.23;;;1.63;;
13566;SDS011;6855;48.112;11.298;2022-08-03T04:41:42;5.67;;;1.80;;
13566;SDS011;6855;48.112;11.298;2022-08-03T04:44:09;2.30;;;2.10;;
13566;SDS011;6855;48.112;11.298;2022-08-03T04:46:37;2.50;;;1.87;;
13566;SDS011;6855;48.112;11.298;2022-08-03T04:49:05;2.27;;;2.07;;
13566;SDS011;6855;48.112;11.298;2022-08-03T04:51:32;2.10;;;1.87;;
13566;SDS011;6855;48.112;11.298;2022-08-03T04:54:03;3.80;;;1.70;;
13566;SDS011;6855;48.112;11.298;2022-08-03T04:56:34;3.47;;;1.80;;
13566;SDS011;6855;48.112;11.298;2022-08-03T04:59:01;2.13;;;1.60;;
13566;SDS011;6855;48.112;11.298;2022-08-03T05:01:29;2.90;;;1.93;;
13566;SDS011;6855;48.112;11.298;2022-08-03T05:03:56;2.70;;;2.00;;
13566;SDS011;6855;48.112;11.298;2022-08-03T05:06:23;3.40;;;2.03;;
13566;SDS011;6855;48.112;11.298;2022-08-03T05:08:50;2.40;;;1.70;;
13566;SDS011;6855;48.112;11.298;2022-08-03T05:11:17;1.97;;;1.77;;
13566;SDS011;6855;48.112;11.298;2022-08-03T05:13:46;2.40;;;1.60;;
13566;SDS011;6855;48.112;11.298;2022-08-03T05:16:13;2.80;;;1.67;;
13566;SDS011;6855;48.112;11.298;2022-08-03T05:18:41;1.93;;;1.73;;
13566;SDS011;6855;48.112;11.298;2022-08-03T05:21:09;2.60;;;1.80;;
13566;SDS011;6855;48.112;11.298;2022-08-03T05:23:37;2.40;;;1.50;;
13566;SDS011;6855;48.112;11.298;2022-08-03T05:26:05;2.00;;;1.73;;
13566;SDS011;6855;48.112;11.298;2022-08-03T05:28:32;1.70;;;1.60;;
13566;SDS011;6855;48.112;11.298;2022-08-03T05:31:01;2.27;;;1.90;;
13566;SDS011;6855;48.112;11.298;2022-08-03T05:33:28;2.33;;;1.80;;
13566;SDS011;6855;48.112;11.298;2022-08-03T05:35:55;4.43;;;1.60;;
13566;SDS011;6855;48.112;11.298;2022-08-03T05:38:23;2.40;;;1.80;;
13566;SDS011;6855;48.112;11.298;2022-08-03T05:40:50;3.50;;;2.00;;
13566;SDS011;6855;48.112;11.298;2022-08-03T05:43:18;3.00;;;1.77;;
13566;SDS011;6855;48.112;11.298;2022-08-03T05:45:45;2.80;;;2.00;;
13566;SDS011;6855;48.112;11.298;2022-08-03T05:48:14;4.20;;;2.00;;
13566;SDS011;6855;48.112;11.298;2022-08-03T05:50:41;4.77;;;1.80;;
13566;SDS011;6855;48.112;11.298;2022-08-03T05:53:08;4.10;;;2.27;;
13566;SDS011;6855;48.112;11.298;2022-08-03T05:55:36;8.13;;;2.13;;
13566;SDS011;6855;48.112;11.298;2022-08-03T05:58:04;3.23;;;2.07;;
13566;SDS011;6855;48.112;11.298;2022-08-03T06:00:41;4.60;;;2.00;;
13566;SDS011;6855;48.112;11.298;2022-08-03T06:03:09;4.77;;;1.67;;
13566;SDS011;6855;48.112;11.298;2022-08-03T06:05:37;2.60;;;2.27;;
13566;SDS011;6855;48.112;11.298;2022-08-03T06:08:04;4.00;;;2.40;;
13566;SDS011;6855;48.112;11.298;2022-08-03T06:10:32;4.37;;;2.87;;
13566;SDS011;6855;48.112;11.298;2022-08-03T06:12:59;3.10;;;2.20;;
13566;SDS011;6855;48.112;11.298;2022-08-03T06:15:26;2.70;;;2.50;;
13566;SDS011;6855;48.112;11.298;2022-08-03T06:17:54;4.33;;;1.93;;
13566;SDS011;6855;48.112;11.298;2022-08-03T06:20:22;10.00;;;2.67;;
13566;SDS011;6855;48.112;11.298;2022-08-03T06:22:51;6.03;;;2.30;;
13566;SDS011;6855;48.112;11.298;2022-08-03T06:25:18;2.80;;;2.60;;
13566;SDS011;6855;48.112;11.298;2022-08-03T06:27:45;3.77;;;3.03;;
13566;SDS011;6855;48.112;11.298;2022-08-03T06:30:13;4.57;;;2.83;;
13566;SDS011;6855;48.112;11.298;2022-08-03T06:32:44;2.80;;;2.57;;
13566;SDS011;6855;48.112;11.298;2022-08-03T06:35:12;4.83;;;2.73;;
13566;SDS011;6855;48.112;11.298;2022-08-03T06:37:40;4.73;;;3.33;;
13566;SDS011;6855;48.112;11.298;2022-08-03T06:40:10;11.13;;;3.20;;
13566;SDS011;6855;48.112;11.298;2022-08-03T06:42:38;6.80;;;3.13;;
13566;SDS011;6855;48.112;11.298;2022-08-03T06:45:06;6.50;;;2.80;;
13566;SDS011;6855;48.112;11.298;2022-08-03T06:47:34;4.10;;;3.17;;
13566;SDS011;6855;48.112;11.298;2022-08-03T06:50:01;3.07;;;2.70;;
13566;SDS011;6855;48.112;11.298;2022-08-03T06:52:31;7.43;;;2.90;;
13566;SDS011;6855;48.112;11.298;2022-08-03T06:54:59;3.57;;;3.23;;
13566;SDS011;6855;48.112;11.298;2022-08-03T06:57:27;4.47;;;3.10;;
13566;SDS011;6855;48.112;11.298;2022-08-03T06:59:54;3.40;;;3.10;;
13566;SDS011;6855;48.112;11.298;2022-08-03T07:02:25;3.50;;;3.07;;
13566;SDS011;6855;48.112;11.298;2022-08-03T07:04:52;3.47;;;3.20;;
13566;SDS011;6855;48.112;11.298;2022-08-03T07:07:20;3.50;;;3.00;;
13566;SDS011;6855;48.112;11.298;2022-08-03T07:09:48;2.63;;;2.40;;
13566;SDS011;6855;48.112;11.298;2022-08-03T07:12:15;3.00;;;2.80;;
13566;SDS011;6855;48.112;11.298;2022-08-03T07:14:44;8.38;;;2.85;;
13566;SDS011;6855;48.112;11.298;2022-08-03T07:17:11;3.10;;;2.90;;
13566;SDS011;6855;48.112;11.298;2022-08-03T07:19:38;2.87;;;2.67;;
13566;SDS011;6855;48.112;11.298;2022-08-03T07:22:05;3.60;;;3.20;;
13566;SDS011;6855;48.112;11.298;2022-08-03T07:24:33;3.93;;;3.10;;
13566;SDS011;6855;48.112;11.298;2022-08-03T07:27:00;2.90;;;2.70;;
13566;SDS011;6855;48.112;11.298;2022-08-03T07:29:28;3.03;;;2.83;;
13566;SDS011;6855;48.112;11.298;2022-08-03T07:31:56;6.47;;;2.77;;
13566;SDS011;6855;48.112;11.298;2022-08-03T07:34:23;3.10;;;2.73;;
13566;SDS011;6855;48.112;11.298;2022-08-03T07:36:50;2.93;;;2.73;;
13566;SDS011;6855;48.112;11.298;2022-08-03T07:39:18;4.20;;;2.70;;
13566;SDS011;6855;48.112;11.298;2022-08-03T07:41:45;3.00;;;2.80;;
13566;SDS011;6855;48.112;11.298;2022-08-03T07:44:15;2.50;;;2.37;;
13566;SDS011;6855;48.112;11.298;2022-08-03T07:46:42;2.73;;;2.53;;
13566;SDS011;6855;48.112;11.298;2022-08-03T07:49:11;3.63;;;2.70;;
13566;SDS011;6855;48.112;11.298;2022-08-03T07:51:38;3.17;;;2.87;;
13566;SDS011;6855;48.112;11.298;2022-08-03T07:54:05;2.77;;;2.57;;
13566;SDS011;6855;48.112;11.298;2022-08-03T07:56:34;2.90;;;2.70;;
13566;SDS011;6855;48.112;11.298;2022-08-03T07:59:01;2.60;;;2.50;;
13566;SDS011;6855;48.112;11.298;2022-08-03T08:01:29;4.73;;;2.73;;
13566;SDS011;6855;48.112;11.298;2022-08-03T08:03:58;2.60;;;2.40;;
13566;SDS011;6855;48.112;11.298;2022-08-03T08:06:26;2.83;;;2.63;;
13566;SDS011;6855;48.112;11.298;2022-08-03T08:08:55;3.20;;;2.90;;
13566;SDS011;6855;48.112;11.298;2022-08-03T08:11:26;2.90;;;2.50;;
13566;SDS011;6855;48.112;11.298;2022-08-03T08:13:53;3.10;;;2.77;;
13566;SDS011;6855;48.112;11.298;2022-08-03T08:16:20;2.30;;;2.20;;
13566;SDS011;6855;48.112;11.298;2022-08-03T08:18:47;2.20;;;2.10;;
13566;SDS011;6855;48.112;11.298;2022-08-03T08:21:15;7.30;;;2.30;;
13566;SDS011;6855;48.112;11.298;2022-08-03T08:23:43;2.87;;;2.57;;
13566;SDS011;6855;48.112;11.298;2022-08-03T08:26:10;2.80;;;2.60;;
13566;SDS011;6855;48.112;11.298;2022-08-03T08:28:38;2.40;;;2.15;;
13566;SDS011;6855;48.112;11.298;2022-08-03T08:31:05;2.53;;;2.35;;
13566;SDS011;6855;48.112;11.298;2022-08-03T08:33:32;2.75;;;2.30;;
13566;SDS011;6855;48.112;11.298;2022-08-03T08:36:00;3.03;;;2.85;;
13566;SDS011;6855;48.112;11.298;2022-08-03T08:38:27;3.47;;;3.17;;
13566;SDS011;6855;48.112;11.298;2022-08-03T08:40:55;3.90;;;3.00;;
13566;SDS011;6855;48.112;11.298;2022-08-03T08:43:23;4.63;;;2.90;;
13566;SDS011;6855;48.112;11.298;2022-08-03T08:45:50;2.97;;;2.78;;
13566;SDS011;6855;48.112;11.298;2022-08-03T08:48:19;2.97;;;2.70;;
13566;SDS011;6855;48.112;11.298;2022-08-03T08:50:48;2.90;;;2.70;;
13566;SDS011;6855;48.112;11.298;2022-08-03T08:53:18;4.45;;;2.60;;
13566;SDS011;6855;48.112;11.298;2022-08-03T08:55:46;3.13;;;2.85;;
13566;SDS011;6855;48.112;11.298;2022-08-03T08:58:15;3.15;;;2.92;;
13566;SDS011;6855;48.112;11.298;2022-08-03T09:00:45;3.13;;;2.92;;
13566;SDS011;6855;48.112;11.298;2022-08-03T09:03:12;3.28;;;3.08;;
13566;SDS011;6855;48.112;11.298;2022-08-03T09:05:42;3.10;;;2.90;;
13566;SDS011;6855;48.112;11.298;2022-08-03T09:08:09;3.17;;;2.97;;
13566;SDS011;6855;48.112;11.298;2022-08-03T09:10:36;3.20;;;3.00;;
13566;SDS011;6855;48.112;11.298;2022-08-03T09:13:03;3.35;;;3.00;;
13566;SDS011;6855;48.112;11.298;2022-08-03T09:15:32;2.65;;;2.55;;
13566;SDS011;6855;48.112;11.298;2022-08-03T09:18:00;2.60;;;2.40;;
13566;SDS011;6855;48.112;11.298;2022-08-03T09:20:28;2.80;;;2.60;;
13566;SDS011;6855;48.112;11.298;2022-08-03T09:22:56;2.80;;;2.60;;
13566;SDS011;6855;48.112;11.298;2022-08-03T09:25:27;2.70;;;2.50;;
13566;SDS011;6855;48.112;11.298;2022-08-03T09:28:02;3.10;;;2.90;;
13566;SDS011;6855;48.112;11.298;2022-08-03T09:30:30;2.53;;;2.42;;
13566;SDS011;6855;48.112;11.298;2022-08-03T09:33:00;3.00;;;2.88;;
13566;SDS011;6855;48.112;11.298;2022-08-03T09:35:27;2.47;;;2.38;;
13566;SDS011;6855;48.112;11.298;2022-08-03T09:38:10;3.13;;;2.60;;
13566;SDS011;6855;48.112;11.298;2022-08-03T09:40:38;2.53;;;2.30;;
13566;SDS011;6855;48.112;11.298;2022-08-03T09:43:06;2.53;;;1.08;;
13566;SDS011;6855;48.112;11.298;2022-08-03T09:45:33;1.95;;;0.90;;
13566;SDS011;6855;48.112;11.298;2022-08-03T09:51:01;1.00;;;0.80;;
13566;SDS011;6855;48.112;11.298;2022-08-03T09:53:28;2.80;;;1.10;;
13566;SDS011;6855;48.112;11.298;2022-08-03T09:55:56;1.30;;;1.10;;
13566;SDS011;6855;48.112;11.298;2022-08-03T09:58:24;1.00;;;0.90;;
13566;SDS011;6855;48.112;11.298;2022-08-03T10:00:52;1.03;;;0.93;;
13566;SDS011;6855;48.112;11.298;2022-08-03T10:03:19;1.83;;;1.10;;
13566;SDS011;6855;48.112;11.298;2022-08-03T10:05:47;1.20;;;1.10;;
13566;SDS011;6855;48.112;11.298;2022-08-03T10:08:16;6.50;;;1.10;;
13566;SDS011;6855;48.112;11.298;2022-08-03T10:10:43;2.80;;;1.10;;
13566;SDS011;6855;48.112;11.298;2022-08-03T10:13:11;1.17;;;1.07;;
13566;SDS011;6855;48.112;11.298;2022-08-03T10:15:39;1.10;;;1.00;;
13566;SDS011;6855;48.112;11.298;2022-08-03T10:18:06;1.07;;;0.90;;
13566;SDS011;6855;48.112;11.298;2022-08-03T10:20:35;1.20;;;1.10;;
13566;SDS011;6855;48.112;11.298;2022-08-03T10:23:03;1.10;;;1.00;;
13566;SDS011;6855;48.112;11.298;2022-08-03T10:25:32;1.00;;;0.90;;
13566;SDS011;6855;48.112;11.298;2022-08-03T10:28:00;2.10;;;1.10;;
13566;SDS011;6855;48.112;11.298;2022-08-03T10:30:32;1.30;;;1.20;;
13566;SDS011;6855;48.112;11.298;2022-08-03T10:33:04;1.27;;;1.00;;
13566;SDS011;6855;48.112;11.298;2022-08-03T10:35:32;2.53;;;1.00;;
13566;SDS011;6855;48.112;11.298;2022-08-03T10:38:01;1.73;;;0.80;;
13566;SDS011;6855;48.112;11.298;2022-08-03T10:40:29;1.60;;;0.80;;
13566;SDS011;6855;48.112;11.298;2022-08-03T10:42:58;1.83;;;1.30;;
13566;SDS011;6855;48.112;11.298;2022-08-03T10:45:28;3.30;;;0.87;;
13566;SDS011;6855;48.112;11.298;2022-08-03T10:47:57;2.33;;;1.00;;
13566;SDS011;6855;48.112;11.298;2022-08-03T10:50:25;3.25;;;1.10;;
13566;SDS011;6855;48.112;11.298;2022-08-03T10:53:02;1.85;;;1.00;;
13566;SDS011;6855;48.112;11.298;2022-08-03T10:55:32;1.77;;;1.02;;
13566;SDS011;6855;48.112;11.298;2022-08-03T11:01:05;2.17;;;1.17;;
13566;SDS011;6855;48.112;11.298;2022-08-03T11:03:32;1.38;;;1.17;;
13566;SDS011;6855;48.112;11.298;2022-08-03T11:06:13;1.13;;;1.02;;
13566;SDS011;6855;48.112;11.298;2022-08-03T11:08:40;1.27;;;1.00;;
13566;SDS011;6855;48.112;11.298;2022-08-03T11:11:23;1.10;;;1.00;;
13566;SDS011;6855;48.112;11.298;2022-08-03T11:13:56;1.30;;;1.10;;
13566;SDS011;6855;48.112;11.298;2022-08-03T11:16:25;1.38;;;0.90;;
13566;SDS011;6855;48.112;11.298;2022-08-03T11:18:56;2.35;;;1.10;;
13566;SDS011;6855;48.112;11.298;2022-08-03T11:24:10;1.27;;;1.08;;
13566;SDS011;6855;48.112;11.298;2022-08-03T11:26:37;1.23;;;1.13;;
13566;SDS011;6855;48.112;11.298;2022-08-03T11:32:00;1.55;;;1.10;;
13566;SDS011;6855;48.112;11.298;2022-08-03T11:34:27;2.35;;;0.98;;
13566;SDS011;6855;48.112;11.298;2022-08-03T11:39:40;1.00;;;1.00;;
13566;SDS011;6855;48.112;11.298;2022-08-03T11:42:36;1.17;;;1.08;;
13566;SDS011;6855;48.112;11.298;2022-08-03T11:45:05;3.80;;;1.15;;
13566;SDS011;6855;48.112;11.298;2022-08-03T11:47:37;1.67;;;1.20;;
13566;SDS011;6855;48.112;11.298;2022-08-03T11:50:05;1.50;;;1.00;;
13566;SDS011;6855;48.112;11.298;2022-08-03T11:52:33;1.00;;;1.00;;
13566;SDS011;6855;48.112;11.298;2022-08-03T11:55:01;1.92;;;1.08;;
13566;SDS011;6855;48.112;11.298;2022-08-03T11:57:28;1.20;;;1.00;;
13566;SDS011;6855;48.112;11.298;2022-08-03T11:59:56;3.10;;;1.30;;
13566;SDS011;6855;48.112;11.298;2022-08-03T12:02:23;4.88;;;1.08;;
13566;SDS011;6855;48.112;11.298;2022-08-03T12:04:52;1.35;;;0.90;;
13566;SDS011;6855;48.112;11.298;2022-08-03T12:07:22;1.10;;;0.93;;
13566;SDS011;6855;48.112;11.298;2022-08-03T12:10:07;1.20;;;1.10;;
13566;SDS011;6855;48.112;11.298;2022-08-03T12:12:35;2.80;;;1.10;;
13566;SDS011;6855;48.112;11.298;2022-08-03T12:15:02;1.13;;;1.02;;
13566;SDS011;6855;48.112;11.298;2022-08-03T12:17:33;1.33;;;1.00;;
13566;SDS011;6855;48.112;11.298;2022-08-03T12:20:02;1.90;;;1.10;;
13566;SDS011;6855;48.112;11.298;2022-08-03T12:22:30;0.90;;;0.90;;
13566;SDS011;6855;48.112;11.298;2022-08-03T12:24:57;1.20;;;1.10;;
13566;SDS011;6855;48.112;11.298;2022-08-03T12:27:25;1.00;;;0.90;;
13566;SDS011;6855;48.112;11.298;2022-08-03T12:29:54;1.65;;;1.10;;
13566;SDS011;6855;48.112;11.298;2022-08-03T12:32:21;1.20;;;1.10;;
13566;SDS011;6855;48.112;11.298;2022-08-03T12:34:49;3.47;;;1.30;;
13566;SDS011;6855;48.112;11.298;2022-08-03T12:37:18;0.90;;;0.90;;
13566;SDS011;6855;48.112;11.298;2022-08-03T12:39:48;1.42;;;1.10;;
13566;SDS011;6855;48.112;11.298;2022-08-03T12:42:16;1.33;;;0.98;;
13566;SDS011;6855;48.112;11.298;2022-08-03T12:44:43;1.98;;;1.25;;
13566;SDS011;6855;48.112;11.298;2022-08-03T12:47:13;1.48;;;1.00;;
13566;SDS011;6855;48.112;11.298;2022-08-03T12:49:44;1.45;;;1.10;;
13566;SDS011;6855;48.112;11.298;2022-08-03T12:52:11;4.88;;;4.68;;
13566;SDS011;6855;48.112;11.298;2022-08-03T12:54:39;3.92;;;3.72;;
13566;SDS011;6855;48.112;11.298;2022-08-03T12:57:08;4.40;;;4.20;;
13566;SDS011;6855;48.112;11.298;2022-08-03T12:59:36;3.83;;;3.58;;
13566;SDS011;6855;48.112;11.298;2022-08-03T13:02:12;4.10;;;3.83;;
13566;SDS011;6855;48.112;11.298;2022-08-03T13:04:41;4.30;;;4.10;;
13566;SDS011;6855;48.112;11.298;2022-08-03T13:07:09;5.10;;;3.75;;
13566;SDS011;6855;48.112;11.298;2022-08-03T13:09:41;2.58;;;2.47;;
13566;SDS011;6855;48.112;11.298;2022-08-03T13:12:09;2.95;;;2.75;;
13566;SDS011;6855;48.112;11.298;2022-08-03T13:14:36;2.70;;;2.50;;
13566;SDS011;6855;48.112;11.298;2022-08-03T13:17:04;2.60;;;2.40;;
13566;SDS011;6855;48.112;11.298;2022-08-03T13:19:31;2.75;;;2.65;;
13566;SDS011;6855;48.112;11.298;2022-08-03T13:21:59;3.10;;;2.70;;
13566;SDS011;6855;48.112;11.298;2022-08-03T13:24:27;2.72;;;2.58;;
13566;SDS011;6855;48.112;11.298;2022-08-03T13:26:55;2.10;;;2.00;;
13566;SDS011;6855;48.112;11.298;2022-08-03T13:29:22;2.42;;;2.33;;
13566;SDS011;6855;48.112;11.298;2022-08-03T13:31:50;2.35;;;2.10;;
13566;SDS011;6855;48.112;11.298;2022-08-03T13:34:17;2.78;;;2.58;;
13566;SDS011;6855;48.112;11.298;2022-08-03T13:36:44;3.30;;;3.10;;
13566;SDS011;6855;48.112;11.298;2022-08-03T13:39:11;3.10;;;2.97;;
13566;SDS011;6855;48.112;11.298;2022-08-03T13:41:39;3.22;;;3.03;;
13566;SDS011;6855;48.112;11.298;2022-08-03T13:44:07;3.47;;;3.13;;
13566;SDS011;6855;48.112;11.298;2022-08-03T13:46:34;2.90;;;2.80;;
13566;SDS011;6855;48.112;11.298;2022-08-03T13:49:01;2.70;;;2.60;;
13566;SDS011;6855;48.112;11.298;2022-08-03T13:51:29;2.47;;;2.38;;
13566;SDS011;6855;48.112;11.298;2022-08-03T13:53:56;2.93;;;2.83;;
13566;SDS011;6855;48.112;11.298;2022-08-03T13:56:23;2.43;;;2.20;;
13566;SDS011;6855;48.112;11.298;2022-08-03T13:58:51;2.40;;;2.30;;
13566;SDS011;6855;48.112;11.298;2022-08-03T14:01:19;2.43;;;2.10;;
13566;SDS011;6855;48.112;11.298;2022-08-03T14:03:47;2.27;;;2.17;;
13566;SDS011;6855;48.112;11.298;2022-08-03T14:06:16;2.73;;;2.20;;
13566;SDS011;6855;48.112;11.298;2022-08-03T14:08:43;3.60;;;2.00;;
13566;SDS011;6855;48.112;11.298;2022-08-03T14:11:12;2.67;;;2.07;;
13566;SDS011;6855;48.112;11.298;2022-08-03T14:13:39;2.97;;;2.20;;
13566;SDS011;6855;48.112;11.298;2022-08-03T14:16:07;2.50;;;2.30;;
13566;SDS011;6855;48.112;11.298;2022-08-03T14:18:35;2.10;;;1.90;;
13566;SDS011;6855;48.112;11.298;2022-08-03T14:21:03;1.90;;;1.80;;
13566;SDS011;6855;48.112;11.298;2022-08-03T14:23:31;2.00;;;1.90;;
13566;SDS011;6855;48.112;11.298;2022-08-03T14:25:58;1.93;;;1.80;;
13566;SDS011;6855;48.112;11.298;2022-08-03T14:28:25;2.77;;;2.60;;
13566;SDS011;6855;48.112;11.298;2022-08-03T14:30:53;3.30;;;2.03;;
13566;SDS011;6855;48.112;11.298;2022-08-03T14:33:21;4.37;;;2.10;;
13566;SDS011;6855;48.112;11.298;2022-08-03T14:35:50;2.47;;;2.37;;
13566;SDS011;6855;48.112;11.298;2022-08-03T14:38:17;5.63;;;2.17;;
13566;SDS011;6855;48.112;11.298;2022-08-03T14:40:45;2.30;;;2.20;;
13566;SDS011;6855;48.112;11.298;2022-08-03T14:43:12;6.17;;;2.50;;
13566;SDS011;6855;48.112;11.298;2022-08-03T14:45:40;1.70;;;1.60;;
13566;SDS011;6855;48.112;11.298;2022-08-03T14:48:07;3.00;;;1.97;;
13566;SDS011;6855;48.112;11.298;2022-08-03T14:50:36;1.20;;;1.00;;
13566;SDS011;6855;48.112;11.298;2022-08-03T14:53:05;1.47;;;1.20;;
13566;SDS011;6855;48.112;11.298;2022-08-03T14:55:32;1.10;;;1.00;;
13566;SDS011;6855;48.112;11.298;2022-08-03T14:58:00;1.83;;;1.00;;
13566;SDS011;6855;48.112;11.298;2022-08-03T15:00:29;1.10;;;1.00;;
13566;SDS011;6855;48.112;11.298;2022-08-03T15:02:57;2.53;;;1.20;;
13566;SDS011;6855;48.112;11.298;2022-08-03T15:05:24;1.53;;;1.30;;
13566;SDS011;6855;48.112;11.298;2022-08-03T15:07:51;3.27;;;2.93;;
13566;SDS011;6855;48.112;11.298;2022-08-03T15:10:20;3.03;;;2.90;;